sensor_id;sensor_type;location;lat;lon;timestamp;P1;durP1;ratioP1;P2;durP2;ratioP2
80104;SDS011;69865;47.648;19.030;2023-08-06T00:00:14;11.00;;;11.00;;
80104;SDS011;69865;47.648;19.030;2023-08-06T00:00:47;11.13;;;11.13;;
80104;SDS011;69865;47.648;19.030;2023-08-06T00:01:27;11.33;;;11.33;;
80104;SDS011;69865;47.648;19.030;2023-08-06T00:02:00;11.57;;;11.57;;
80104;SDS011;69865;47.648;19.030;2023-08-06T00:02:32;10.90;;;10.90;;
80104;SDS011;69865;47.648;19.030;2023-08-06T00:03:07;11.03;;;11.03;;
80104;SDS011;69865;47.648;19.030;2023-08-06T00:03:40;10.57;;;10.57;;
80104;SDS011;69865;47.648;19.030;2023-08-06T00:04:13;11.33;;;11.33;;
80104;SDS011;69865;47.648;19.030;2023-08-06T00:04:46;11.57;;;11.57;;
80104;SDS011;69865;47.648;19.030;2023-08-06T00:05:19;11.17;;;11.17;;
80104;SDS011;69865;47.648;19.030;2023-08-06T00:05:52;11.40;;;11.40;;
80104;SDS011;69865;47.648;19.030;2023-08-06T00:06:25;10.43;;;10.43;;
80104;SDS011;69865;47.648;19.030;2023-08-06T00:06:57;10.50;;;10.50;;
80104;SDS011;69865;47.648;19.030;2023-08-06T00:07:31;10.87;;;10.87;;
80104;SDS011;69865;47.648;19.030;2023-08-06T00:08:06;11.20;;;11.20;;
80104;SDS011;69865;47.648;19.030;2023-08-06T00:08:39;11.47;;;11.47;;
80104;SDS011;69865;47.648;19.030;2023-08-06T00:09:11;10.93;;;10.93;;
80104;SDS011;69865;47.648;19.030;2023-08-06T00:09:44;10.70;;;10.70;;
80104;SDS011;69865;47.648;19.030;2023-08-06T00:10:17;11.00;;;11.00;;
80104;SDS011;69865;47.648;19.030;2023-08-06T00:10:49;11.80;;;11.80;;
80104;SDS011;69865;47.648;19.030;2023-08-06T00:11:22;11.53;;;11.53;;
80104;SDS011;69865;47.648;19.030;2023-08-06T00:11:55;12.67;;;12.67;;
80104;SDS011;69865;47.648;19.030;2023-08-06T00:12:29;12.70;;;12.70;;
80104;SDS011;69865;47.648;19.030;2023-08-06T00:13:02;12.07;;;12.07;;
80104;SDS011;69865;47.648;19.030;2023-08-06T00:13:35;11.83;;;11.83;;
80104;SDS011;69865;47.648;19.030;2023-08-06T00:14:09;12.47;;;12.47;;
80104;SDS011;69865;47.648;19.030;2023-08-06T00:14:42;12.03;;;12.03;;
80104;SDS011;69865;47.648;19.030;2023-08-06T00:15:15;11.73;;;11.73;;
80104;SDS011;69865;47.648;19.030;2023-08-06T00:15:47;11.27;;;11.27;;
80104;SDS011;69865;47.648;19.030;2023-08-06T00:16:20;11.87;;;11.87;;
80104;SDS011;69865;47.648;19.030;2023-08-06T00:16:55;12.23;;;12.23;;
80104;SDS011;69865;47.648;19.030;2023-08-06T00:17:28;12.27;;;12.27;;
80104;SDS011;69865;47.648;19.030;2023-08-06T00:18:04;12.67;;;12.67;;
80104;SDS011;69865;47.648;19.030;2023-08-06T00:18:38;12.73;;;12.73;;
80104;SDS011;69865;47.648;19.030;2023-08-06T00:19:11;12.37;;;12.37;;
80104;SDS011;69865;47.648;19.030;2023-08-06T00:19:44;13.13;;;13.13;;
80104;SDS011;69865;47.648;19.030;2023-08-06T00:20:17;13.33;;;13.33;;
80104;SDS011;69865;47.648;19.030;2023-08-06T00:20:52;12.50;;;12.50;;
80104;SDS011;69865;47.648;19.030;2023-08-06T00:21:24;12.70;;;12.70;;
80104;SDS011;69865;47.648;19.030;2023-08-06T00:22:01;13.03;;;13.03;;
80104;SDS011;69865;47.648;19.030;2023-08-06T00:22:35;13.87;;;13.87;;
80104;SDS011;69865;47.648;19.030;2023-08-06T00:23:09;13.67;;;13.67;;
80104;SDS011;69865;47.648;19.030;2023-08-06T00:23:58;13.57;;;13.57;;
80104;SDS011;69865;47.648;19.030;2023-08-06T00:24:34;13.60;;;13.60;;
80104;SDS011;69865;47.648;19.030;2023-08-06T00:25:08;13.53;;;13.53;;
80104;SDS011;69865;47.648;19.030;2023-08-06T00:25:41;13.40;;;13.40;;
80104;SDS011;69865;47.648;19.030;2023-08-06T00:26:13;13.53;;;13.53;;
80104;SDS011;69865;47.648;19.030;2023-08-06T00:26:45;13.57;;;13.57;;
80104;SDS011;69865;47.648;19.030;2023-08-06T00:27:17;13.47;;;13.47;;
80104;SDS011;69865;47.648;19.030;2023-08-06T00:27:50;13.43;;;13.43;;
80104;SDS011;69865;47.648;19.030;2023-08-06T00:28:23;13.13;;;13.13;;
80104;SDS011;69865;47.648;19.030;2023-08-06T00:28:56;13.60;;;13.60;;
80104;SDS011;69865;47.648;19.030;2023-08-06T00:29:29;13.67;;;13.67;;
80104;SDS011;69865;47.648;19.030;2023-08-06T00:30:01;13.87;;;13.87;;
80104;SDS011;69865;47.648;19.030;2023-08-06T00:30:34;13.63;;;13.63;;
80104;SDS011;69865;47.648;19.030;2023-08-06T00:31:07;13.20;;;13.20;;
80104;SDS011;69865;47.648;19.030;2023-08-06T00:31:40;13.83;;;13.83;;
80104;SDS011;69865;47.648;19.030;2023-08-06T00:32:13;14.37;;;14.37;;
80104;SDS011;69865;47.648;19.030;2023-08-06T00:32:45;13.40;;;13.40;;
80104;SDS011;69865;47.648;19.030;2023-08-06T00:33:20;13.73;;;13.73;;
80104;SDS011;69865;47.648;19.030;2023-08-06T00:33:53;14.37;;;14.37;;
80104;SDS011;69865;47.648;19.030;2023-08-06T00:34:26;13.43;;;13.43;;
80104;SDS011;69865;47.648;19.030;2023-08-06T00:34:59;13.50;;;13.50;;
80104;SDS011;69865;47.648;19.030;2023-08-06T00:35:31;13.53;;;13.53;;
80104;SDS011;69865;47.648;19.030;2023-08-06T00:36:04;13.53;;;13.53;;
80104;SDS011;69865;47.648;19.030;2023-08-06T00:36:36;14.07;;;14.07;;
80104;SDS011;69865;47.648;19.030;2023-08-06T00:37:09;14.40;;;14.40;;
80104;SDS011;69865;47.648;19.030;2023-08-06T00:37:44;14.50;;;14.50;;
80104;SDS011;69865;47.648;19.030;2023-08-06T00:38:19;14.20;;;14.20;;
80104;SDS011;69865;47.648;19.030;2023-08-06T00:38:52;13.03;;;13.03;;
80104;SDS011;69865;47.648;19.030;2023-08-06T00:39:24;13.37;;;13.37;;
80104;SDS011;69865;47.648;19.030;2023-08-06T00:39:56;14.23;;;14.23;;
80104;SDS011;69865;47.648;19.030;2023-08-06T00:40:28;14.33;;;14.33;;
80104;SDS011;69865;47.648;19.030;2023-08-06T00:41:00;13.93;;;13.93;;
80104;SDS011;69865;47.648;19.030;2023-08-06T00:41:32;13.70;;;13.70;;
80104;SDS011;69865;47.648;19.030;2023-08-06T00:42:05;13.67;;;13.67;;
80104;SDS011;69865;47.648;19.030;2023-08-06T00:42:37;13.27;;;13.27;;
80104;SDS011;69865;47.648;19.030;2023-08-06T00:43:09;13.40;;;13.40;;
80104;SDS011;69865;47.648;19.030;2023-08-06T00:43:41;13.70;;;13.70;;
80104;SDS011;69865;47.648;19.030;2023-08-06T00:44:13;13.70;;;13.70;;
80104;SDS011;69865;47.648;19.030;2023-08-06T00:44:45;13.77;;;13.77;;
80104;SDS011;69865;47.648;19.030;2023-08-06T00:45:17;14.57;;;14.57;;
80104;SDS011;69865;47.648;19.030;2023-08-06T00:45:49;14.43;;;14.43;;
80104;SDS011;69865;47.648;19.030;2023-08-06T00:46:21;14.67;;;14.67;;
80104;SDS011;69865;47.648;19.030;2023-08-06T00:46:54;14.57;;;14.57;;
80104;SDS011;69865;47.648;19.030;2023-08-06T00:47:28;14.40;;;14.40;;
80104;SDS011;69865;47.648;19.030;2023-08-06T00:48:01;13.20;;;13.20;;
80104;SDS011;69865;47.648;19.030;2023-08-06T00:48:35;13.50;;;13.50;;
80104;SDS011;69865;47.648;19.030;2023-08-06T00:49:07;12.03;;;12.03;;
80104;SDS011;69865;47.648;19.030;2023-08-06T00:49:39;10.57;;;10.57;;
80104;SDS011;69865;47.648;19.030;2023-08-06T00:50:12;9.77;;;9.77;;
80104;SDS011;69865;47.648;19.030;2023-08-06T00:50:44;9.33;;;9.33;;
80104;SDS011;69865;47.648;19.030;2023-08-06T00:51:16;9.63;;;9.63;;
80104;SDS011;69865;47.648;19.030;2023-08-06T00:51:49;9.60;;;9.60;;
80104;SDS011;69865;47.648;19.030;2023-08-06T00:52:22;9.13;;;9.13;;
80104;SDS011;69865;47.648;19.030;2023-08-06T00:52:55;9.10;;;9.10;;
80104;SDS011;69865;47.648;19.030;2023-08-06T00:53:28;8.83;;;8.83;;
80104;SDS011;69865;47.648;19.030;2023-08-06T00:54:00;8.53;;;8.53;;
80104;SDS011;69865;47.648;19.030;2023-08-06T00:54:33;8.37;;;8.37;;
80104;SDS011;69865;47.648;19.030;2023-08-06T00:55:06;8.60;;;8.60;;
80104;SDS011;69865;47.648;19.030;2023-08-06T00:55:40;8.73;;;8.73;;
80104;SDS011;69865;47.648;19.030;2023-08-06T00:56:14;8.37;;;8.37;;
80104;SDS011;69865;47.648;19.030;2023-08-06T00:56:46;8.23;;;8.23;;
80104;SDS011;69865;47.648;19.030;2023-08-06T00:57:20;7.57;;;7.57;;
80104;SDS011;69865;47.648;19.030;2023-08-06T00:57:56;8.00;;;8.00;;
80104;SDS011;69865;47.648;19.030;2023-08-06T00:58:29;7.60;;;7.60;;
80104;SDS011;69865;47.648;19.030;2023-08-06T00:59:01;7.60;;;7.60;;
80104;SDS011;69865;47.648;19.030;2023-08-06T00:59:34;7.37;;;7.37;;
80104;SDS011;69865;47.648;19.030;2023-08-06T01:00:08;7.77;;;7.77;;
80104;SDS011;69865;47.648;19.030;2023-08-06T01:00:40;7.50;;;7.50;;
80104;SDS011;69865;47.648;19.030;2023-08-06T01:01:13;7.23;;;7.23;;
80104;SDS011;69865;47.648;19.030;2023-08-06T01:01:47;6.97;;;6.97;;
80104;SDS011;69865;47.648;19.030;2023-08-06T01:02:20;7.40;;;7.40;;
80104;SDS011;69865;47.648;19.030;2023-08-06T01:02:53;6.93;;;6.93;;
80104;SDS011;69865;47.648;19.030;2023-08-06T01:03:25;7.07;;;7.07;;
80104;SDS011;69865;47.648;19.030;2023-08-06T01:03:57;6.67;;;6.67;;
80104;SDS011;69865;47.648;19.030;2023-08-06T01:04:35;6.60;;;6.60;;
80104;SDS011;69865;47.648;19.030;2023-08-06T01:05:07;7.73;;;7.73;;
80104;SDS011;69865;47.648;19.030;2023-08-06T01:05:39;7.27;;;7.27;;
80104;SDS011;69865;47.648;19.030;2023-08-06T01:06:12;7.07;;;7.07;;
80104;SDS011;69865;47.648;19.030;2023-08-06T01:06:44;7.13;;;7.13;;
80104;SDS011;69865;47.648;19.030;2023-08-06T01:07:23;7.03;;;7.03;;
80104;SDS011;69865;47.648;19.030;2023-08-06T01:08:10;7.60;;;7.60;;
80104;SDS011;69865;47.648;19.030;2023-08-06T01:08:54;6.57;;;6.57;;
80104;SDS011;69865;47.648;19.030;2023-08-06T01:09:35;7.10;;;7.10;;
80104;SDS011;69865;47.648;19.030;2023-08-06T01:10:23;6.93;;;6.93;;
80104;SDS011;69865;47.648;19.030;2023-08-06T01:11:14;7.00;;;7.00;;
80104;SDS011;69865;47.648;19.030;2023-08-06T01:11:59;7.37;;;7.37;;
80104;SDS011;69865;47.648;19.030;2023-08-06T01:12:41;7.27;;;7.27;;
80104;SDS011;69865;47.648;19.030;2023-08-06T01:13:23;7.07;;;7.07;;
80104;SDS011;69865;47.648;19.030;2023-08-06T01:14:06;6.47;;;6.47;;
80104;SDS011;69865;47.648;19.030;2023-08-06T01:14:51;7.10;;;7.10;;
80104;SDS011;69865;47.648;19.030;2023-08-06T01:15:32;6.77;;;6.77;;
80104;SDS011;69865;47.648;19.030;2023-08-06T01:16:10;7.40;;;7.40;;
80104;SDS011;69865;47.648;19.030;2023-08-06T01:16:46;7.17;;;7.17;;
80104;SDS011;69865;47.648;19.030;2023-08-06T01:17:18;7.20;;;7.20;;
80104;SDS011;69865;47.648;19.030;2023-08-06T01:17:53;7.30;;;7.30;;
80104;SDS011;69865;47.648;19.030;2023-08-06T01:18:26;7.30;;;7.30;;
80104;SDS011;69865;47.648;19.030;2023-08-06T01:18:58;7.63;;;7.63;;
80104;SDS011;69865;47.648;19.030;2023-08-06T01:19:30;7.03;;;7.03;;
80104;SDS011;69865;47.648;19.030;2023-08-06T01:20:02;6.73;;;6.73;;
80104;SDS011;69865;47.648;19.030;2023-08-06T01:20:36;7.20;;;7.20;;
80104;SDS011;69865;47.648;19.030;2023-08-06T01:21:08;7.30;;;7.30;;
80104;SDS011;69865;47.648;19.030;2023-08-06T01:21:40;7.33;;;7.33;;
80104;SDS011;69865;47.648;19.030;2023-08-06T01:22:12;6.83;;;6.83;;
80104;SDS011;69865;47.648;19.030;2023-08-06T01:22:44;7.00;;;7.00;;
80104;SDS011;69865;47.648;19.030;2023-08-06T01:23:16;7.13;;;7.13;;
80104;SDS011;69865;47.648;19.030;2023-08-06T01:23:50;7.30;;;7.30;;
80104;SDS011;69865;47.648;19.030;2023-08-06T01:24:22;6.90;;;6.90;;
80104;SDS011;69865;47.648;19.030;2023-08-06T01:24:54;6.67;;;6.67;;
80104;SDS011;69865;47.648;19.030;2023-08-06T01:25:29;6.87;;;6.87;;
80104;SDS011;69865;47.648;19.030;2023-08-06T01:26:10;6.67;;;6.67;;
80104;SDS011;69865;47.648;19.030;2023-08-06T01:26:48;6.93;;;6.93;;
80104;SDS011;69865;47.648;19.030;2023-08-06T01:27:30;6.77;;;6.77;;
80104;SDS011;69865;47.648;19.030;2023-08-06T01:28:11;6.67;;;6.67;;
80104;SDS011;69865;47.648;19.030;2023-08-06T01:28:52;6.87;;;6.87;;
80104;SDS011;69865;47.648;19.030;2023-08-06T01:29:31;6.80;;;6.80;;
80104;SDS011;69865;47.648;19.030;2023-08-06T01:30:09;6.27;;;6.27;;
80104;SDS011;69865;47.648;19.030;2023-08-06T01:30:44;6.33;;;6.33;;
80104;SDS011;69865;47.648;19.030;2023-08-06T01:31:22;6.53;;;6.53;;
80104;SDS011;69865;47.648;19.030;2023-08-06T01:31:58;6.63;;;6.63;;
80104;SDS011;69865;47.648;19.030;2023-08-06T01:32:32;6.70;;;6.70;;
80104;SDS011;69865;47.648;19.030;2023-08-06T01:33:06;7.23;;;7.23;;
80104;SDS011;69865;47.648;19.030;2023-08-06T01:33:46;6.40;;;6.40;;
80104;SDS011;69865;47.648;19.030;2023-08-06T01:34:21;7.03;;;7.03;;
80104;SDS011;69865;47.648;19.030;2023-08-06T01:34:55;6.13;;;6.13;;
80104;SDS011;69865;47.648;19.030;2023-08-06T01:35:30;5.77;;;5.77;;
80104;SDS011;69865;47.648;19.030;2023-08-06T01:36:06;6.87;;;6.87;;
80104;SDS011;69865;47.648;19.030;2023-08-06T01:36:38;6.80;;;6.80;;
80104;SDS011;69865;47.648;19.030;2023-08-06T01:37:12;6.27;;;6.27;;
80104;SDS011;69865;47.648;19.030;2023-08-06T01:37:44;6.63;;;6.63;;
80104;SDS011;69865;47.648;19.030;2023-08-06T01:38:18;6.87;;;6.87;;
80104;SDS011;69865;47.648;19.030;2023-08-06T01:38:50;5.97;;;5.97;;
80104;SDS011;69865;47.648;19.030;2023-08-06T01:39:24;5.97;;;5.97;;
80104;SDS011;69865;47.648;19.030;2023-08-06T01:39:56;6.50;;;6.50;;
80104;SDS011;69865;47.648;19.030;2023-08-06T01:40:28;6.33;;;6.33;;
80104;SDS011;69865;47.648;19.030;2023-08-06T01:41:01;6.70;;;6.70;;
80104;SDS011;69865;47.648;19.030;2023-08-06T01:41:33;6.73;;;6.73;;
80104;SDS011;69865;47.648;19.030;2023-08-06T01:42:05;6.63;;;6.63;;
80104;SDS011;69865;47.648;19.030;2023-08-06T01:42:39;6.40;;;6.40;;
80104;SDS011;69865;47.648;19.030;2023-08-06T01:43:11;6.83;;;6.83;;
80104;SDS011;69865;47.648;19.030;2023-08-06T01:43:43;6.20;;;6.20;;
80104;SDS011;69865;47.648;19.030;2023-08-06T01:44:15;6.23;;;6.23;;
80104;SDS011;69865;47.648;19.030;2023-08-06T01:44:48;6.93;;;6.93;;
80104;SDS011;69865;47.648;19.030;2023-08-06T01:45:20;7.27;;;7.27;;
80104;SDS011;69865;47.648;19.030;2023-08-06T01:45:52;6.80;;;6.80;;
80104;SDS011;69865;47.648;19.030;2023-08-06T01:46:25;7.07;;;7.07;;
80104;SDS011;69865;47.648;19.030;2023-08-06T01:46:57;6.47;;;6.47;;
80104;SDS011;69865;47.648;19.030;2023-08-06T01:47:29;6.87;;;6.87;;
80104;SDS011;69865;47.648;19.030;2023-08-06T01:48:01;6.93;;;6.93;;
80104;SDS011;69865;47.648;19.030;2023-08-06T01:48:33;6.70;;;6.70;;
80104;SDS011;69865;47.648;19.030;2023-08-06T01:49:05;7.07;;;7.07;;
80104;SDS011;69865;47.648;19.030;2023-08-06T01:49:38;6.83;;;6.83;;
80104;SDS011;69865;47.648;19.030;2023-08-06T01:50:10;6.47;;;6.47;;
80104;SDS011;69865;47.648;19.030;2023-08-06T01:50:42;6.20;;;6.20;;
80104;SDS011;69865;47.648;19.030;2023-08-06T01:51:16;6.83;;;6.83;;
80104;SDS011;69865;47.648;19.030;2023-08-06T01:51:48;7.23;;;7.23;;
80104;SDS011;69865;47.648;19.030;2023-08-06T01:52:20;6.87;;;6.87;;
80104;SDS011;69865;47.648;19.030;2023-08-06T01:52:52;7.00;;;7.00;;
80104;SDS011;69865;47.648;19.030;2023-08-06T01:53:24;6.40;;;6.40;;
80104;SDS011;69865;47.648;19.030;2023-08-06T01:53:56;6.50;;;6.50;;
80104;SDS011;69865;47.648;19.030;2023-08-06T01:54:29;7.27;;;7.27;;
80104;SDS011;69865;47.648;19.030;2023-08-06T01:55:01;7.27;;;7.27;;
80104;SDS011;69865;47.648;19.030;2023-08-06T01:55:33;6.93;;;6.93;;
80104;SDS011;69865;47.648;19.030;2023-08-06T01:56:05;6.83;;;6.83;;
80104;SDS011;69865;47.648;19.030;2023-08-06T01:56:38;6.43;;;6.43;;
80104;SDS011;69865;47.648;19.030;2023-08-06T01:57:10;6.60;;;6.60;;
80104;SDS011;69865;47.648;19.030;2023-08-06T01:57:42;6.80;;;6.80;;
80104;SDS011;69865;47.648;19.030;2023-08-06T01:58:14;6.27;;;6.27;;
80104;SDS011;69865;47.648;19.030;2023-08-06T01:58:46;6.60;;;6.60;;
80104;SDS011;69865;47.648;19.030;2023-08-06T01:59:18;6.70;;;6.70;;
80104;SDS011;69865;47.648;19.030;2023-08-06T01:59:50;6.87;;;6.87;;
80104;SDS011;69865;47.648;19.030;2023-08-06T02:00:22;6.93;;;6.93;;
80104;SDS011;69865;47.648;19.030;2023-08-06T02:00:54;7.37;;;7.37;;
80104;SDS011;69865;47.648;19.030;2023-08-06T02:01:26;6.83;;;6.83;;
80104;SDS011;69865;47.648;19.030;2023-08-06T02:01:58;7.07;;;7.07;;
80104;SDS011;69865;47.648;19.030;2023-08-06T02:02:30;7.17;;;7.17;;
80104;SDS011;69865;47.648;19.030;2023-08-06T02:03:02;7.17;;;7.17;;
80104;SDS011;69865;47.648;19.030;2023-08-06T02:03:34;7.57;;;7.57;;
80104;SDS011;69865;47.648;19.030;2023-08-06T02:04:06;7.70;;;7.70;;
80104;SDS011;69865;47.648;19.030;2023-08-06T02:04:39;7.43;;;7.43;;
80104;SDS011;69865;47.648;19.030;2023-08-06T02:05:11;7.73;;;7.73;;
80104;SDS011;69865;47.648;19.030;2023-08-06T02:05:43;8.07;;;8.07;;
80104;SDS011;69865;47.648;19.030;2023-08-06T02:06:16;8.03;;;8.03;;
80104;SDS011;69865;47.648;19.030;2023-08-06T02:06:48;7.67;;;7.67;;
80104;SDS011;69865;47.648;19.030;2023-08-06T02:07:20;7.77;;;7.77;;
80104;SDS011;69865;47.648;19.030;2023-08-06T02:07:52;7.60;;;7.60;;
80104;SDS011;69865;47.648;19.030;2023-08-06T02:08:25;8.17;;;8.17;;
80104;SDS011;69865;47.648;19.030;2023-08-06T02:08:58;7.77;;;7.77;;
80104;SDS011;69865;47.648;19.030;2023-08-06T02:09:30;7.77;;;7.77;;
80104;SDS011;69865;47.648;19.030;2023-08-06T02:10:03;7.63;;;7.63;;
80104;SDS011;69865;47.648;19.030;2023-08-06T02:10:35;7.63;;;7.63;;
80104;SDS011;69865;47.648;19.030;2023-08-06T02:11:07;8.07;;;8.07;;
80104;SDS011;69865;47.648;19.030;2023-08-06T02:11:39;7.47;;;7.47;;
80104;SDS011;69865;47.648;19.030;2023-08-06T02:12:11;7.27;;;7.27;;
80104;SDS011;69865;47.648;19.030;2023-08-06T02:12:43;7.50;;;7.50;;
80104;SDS011;69865;47.648;19.030;2023-08-06T02:13:15;7.40;;;7.40;;
80104;SDS011;69865;47.648;19.030;2023-08-06T02:13:47;6.27;;;6.27;;
80104;SDS011;69865;47.648;19.030;2023-08-06T02:14:19;6.73;;;6.73;;
80104;SDS011;69865;47.648;19.030;2023-08-06T02:14:52;6.47;;;6.47;;
80104;SDS011;69865;47.648;19.030;2023-08-06T02:15:24;6.30;;;6.30;;
80104;SDS011;69865;47.648;19.030;2023-08-06T02:15:56;6.43;;;6.43;;
80104;SDS011;69865;47.648;19.030;2023-08-06T02:16:28;6.33;;;6.33;;
80104;SDS011;69865;47.648;19.030;2023-08-06T02:17:00;6.50;;;6.50;;
80104;SDS011;69865;47.648;19.030;2023-08-06T02:17:32;6.50;;;6.50;;
80104;SDS011;69865;47.648;19.030;2023-08-06T02:18:04;6.00;;;6.00;;
80104;SDS011;69865;47.648;19.030;2023-08-06T02:18:37;5.77;;;5.77;;
80104;SDS011;69865;47.648;19.030;2023-08-06T02:19:09;6.00;;;6.00;;
80104;SDS011;69865;47.648;19.030;2023-08-06T02:19:41;6.30;;;6.30;;
80104;SDS011;69865;47.648;19.030;2023-08-06T02:20:13;6.67;;;6.67;;
80104;SDS011;69865;47.648;19.030;2023-08-06T02:20:54;6.87;;;6.87;;
80104;SDS011;69865;47.648;19.030;2023-08-06T02:21:28;6.10;;;6.10;;
80104;SDS011;69865;47.648;19.030;2023-08-06T02:22:00;6.10;;;6.10;;
80104;SDS011;69865;47.648;19.030;2023-08-06T02:22:32;6.53;;;6.53;;
80104;SDS011;69865;47.648;19.030;2023-08-06T02:23:05;6.50;;;6.50;;
80104;SDS011;69865;47.648;19.030;2023-08-06T02:23:37;6.50;;;6.50;;
80104;SDS011;69865;47.648;19.030;2023-08-06T02:24:09;6.43;;;6.43;;
80104;SDS011;69865;47.648;19.030;2023-08-06T02:24:42;6.17;;;6.17;;
80104;SDS011;69865;47.648;19.030;2023-08-06T02:25:14;5.97;;;5.97;;
80104;SDS011;69865;47.648;19.030;2023-08-06T02:25:46;5.83;;;5.83;;
80104;SDS011;69865;47.648;19.030;2023-08-06T02:26:18;6.67;;;6.67;;
80104;SDS011;69865;47.648;19.030;2023-08-06T02:26:50;6.57;;;6.57;;
80104;SDS011;69865;47.648;19.030;2023-08-06T02:27:23;6.33;;;6.33;;
80104;SDS011;69865;47.648;19.030;2023-08-06T02:27:55;5.97;;;5.97;;
80104;SDS011;69865;47.648;19.030;2023-08-06T02:28:27;5.70;;;5.70;;
80104;SDS011;69865;47.648;19.030;2023-08-06T02:28:59;6.33;;;6.33;;
80104;SDS011;69865;47.648;19.030;2023-08-06T02:29:31;6.13;;;6.13;;
80104;SDS011;69865;47.648;19.030;2023-08-06T02:30:04;6.47;;;6.47;;
80104;SDS011;69865;47.648;19.030;2023-08-06T02:30:36;6.70;;;6.70;;
80104;SDS011;69865;47.648;19.030;2023-08-06T02:31:09;6.40;;;6.40;;
80104;SDS011;69865;47.648;19.030;2023-08-06T02:31:41;6.23;;;6.23;;
80104;SDS011;69865;47.648;19.030;2023-08-06T02:32:13;6.27;;;6.27;;
80104;SDS011;69865;47.648;19.030;2023-08-06T02:32:45;6.80;;;6.80;;
80104;SDS011;69865;47.648;19.030;2023-08-06T02:33:17;6.60;;;6.60;;
80104;SDS011;69865;47.648;19.030;2023-08-06T02:33:49;6.30;;;6.30;;
80104;SDS011;69865;47.648;19.030;2023-08-06T02:34:21;6.07;;;6.07;;
80104;SDS011;69865;47.648;19.030;2023-08-06T02:34:53;6.37;;;6.37;;
80104;SDS011;69865;47.648;19.030;2023-08-06T02:35:25;6.27;;;6.27;;
80104;SDS011;69865;47.648;19.030;2023-08-06T02:36:01;6.07;;;6.07;;
80104;SDS011;69865;47.648;19.030;2023-08-06T02:36:37;6.23;;;6.23;;
80104;SDS011;69865;47.648;19.030;2023-08-06T02:37:09;6.27;;;6.27;;
80104;SDS011;69865;47.648;19.030;2023-08-06T02:37:41;6.60;;;6.60;;
80104;SDS011;69865;47.648;19.030;2023-08-06T02:38:14;6.20;;;6.20;;
80104;SDS011;69865;47.648;19.030;2023-08-06T02:38:46;5.70;;;5.70;;
80104;SDS011;69865;47.648;19.030;2023-08-06T02:39:18;5.90;;;5.90;;
80104;SDS011;69865;47.648;19.030;2023-08-06T02:39:50;6.10;;;6.10;;
80104;SDS011;69865;47.648;19.030;2023-08-06T02:40:22;5.67;;;5.67;;
80104;SDS011;69865;47.648;19.030;2023-08-06T02:40:55;6.00;;;6.00;;
80104;SDS011;69865;47.648;19.030;2023-08-06T02:41:27;6.13;;;6.13;;
80104;SDS011;69865;47.648;19.030;2023-08-06T02:41:59;6.07;;;6.07;;
80104;SDS011;69865;47.648;19.030;2023-08-06T02:42:31;5.93;;;5.93;;
80104;SDS011;69865;47.648;19.030;2023-08-06T02:43:03;5.20;;;5.20;;
80104;SDS011;69865;47.648;19.030;2023-08-06T02:43:35;5.83;;;5.83;;
80104;SDS011;69865;47.648;19.030;2023-08-06T02:44:07;6.53;;;6.53;;
80104;SDS011;69865;47.648;19.030;2023-08-06T02:44:39;5.63;;;5.63;;
80104;SDS011;69865;47.648;19.030;2023-08-06T02:45:12;5.57;;;5.57;;
80104;SDS011;69865;47.648;19.030;2023-08-06T02:45:44;5.63;;;5.63;;
80104;SDS011;69865;47.648;19.030;2023-08-06T02:46:16;5.60;;;5.60;;
80104;SDS011;69865;47.648;19.030;2023-08-06T02:46:48;5.73;;;5.73;;
80104;SDS011;69865;47.648;19.030;2023-08-06T02:47:20;5.47;;;5.47;;
80104;SDS011;69865;47.648;19.030;2023-08-06T02:47:52;5.83;;;5.83;;
80104;SDS011;69865;47.648;19.030;2023-08-06T02:48:24;5.87;;;5.87;;
80104;SDS011;69865;47.648;19.030;2023-08-06T02:48:56;5.67;;;5.67;;
80104;SDS011;69865;47.648;19.030;2023-08-06T02:49:29;5.93;;;5.93;;
80104;SDS011;69865;47.648;19.030;2023-08-06T02:50:01;5.73;;;5.73;;
80104;SDS011;69865;47.648;19.030;2023-08-06T02:50:37;5.90;;;5.90;;
80104;SDS011;69865;47.648;19.030;2023-08-06T02:51:09;5.97;;;5.97;;
80104;SDS011;69865;47.648;19.030;2023-08-06T02:51:44;6.37;;;6.37;;
80104;SDS011;69865;47.648;19.030;2023-08-06T02:52:16;6.03;;;6.03;;
80104;SDS011;69865;47.648;19.030;2023-08-06T02:52:49;6.00;;;6.00;;
80104;SDS011;69865;47.648;19.030;2023-08-06T02:53:21;5.93;;;5.93;;
80104;SDS011;69865;47.648;19.030;2023-08-06T02:53:53;6.07;;;6.07;;
80104;SDS011;69865;47.648;19.030;2023-08-06T02:54:25;6.27;;;6.27;;
80104;SDS011;69865;47.648;19.030;2023-08-06T02:54:57;6.47;;;6.47;;
80104;SDS011;69865;47.648;19.030;2023-08-06T02:55:29;5.97;;;5.97;;
80104;SDS011;69865;47.648;19.030;2023-08-06T02:56:01;6.23;;;6.23;;
80104;SDS011;69865;47.648;19.030;2023-08-06T02:56:33;6.07;;;6.07;;
80104;SDS011;69865;47.648;19.030;2023-08-06T02:57:06;6.13;;;6.13;;
80104;SDS011;69865;47.648;19.030;2023-08-06T02:57:38;6.23;;;6.23;;
80104;SDS011;69865;47.648;19.030;2023-08-06T02:58:10;6.50;;;6.50;;
80104;SDS011;69865;47.648;19.030;2023-08-06T02:58:42;6.70;;;6.70;;
80104;SDS011;69865;47.648;19.030;2023-08-06T02:59:14;6.13;;;6.13;;
80104;SDS011;69865;47.648;19.030;2023-08-06T02:59:46;6.67;;;6.67;;
80104;SDS011;69865;47.648;19.030;2023-08-06T03:00:18;6.17;;;6.17;;
80104;SDS011;69865;47.648;19.030;2023-08-06T03:01:00;6.43;;;6.43;;
80104;SDS011;69865;47.648;19.030;2023-08-06T03:01:33;6.43;;;6.43;;
80104;SDS011;69865;47.648;19.030;2023-08-06T03:02:05;6.50;;;6.50;;
80104;SDS011;69865;47.648;19.030;2023-08-06T03:02:37;5.83;;;5.83;;
80104;SDS011;69865;47.648;19.030;2023-08-06T03:03:09;5.37;;;5.37;;
80104;SDS011;69865;47.648;19.030;2023-08-06T03:03:41;5.63;;;5.63;;
80104;SDS011;69865;47.648;19.030;2023-08-06T03:04:13;5.47;;;5.47;;
80104;SDS011;69865;47.648;19.030;2023-08-06T03:04:45;5.43;;;5.43;;
80104;SDS011;69865;47.648;19.030;2023-08-06T03:05:18;5.27;;;5.27;;
80104;SDS011;69865;47.648;19.030;2023-08-06T03:05:53;6.30;;;6.30;;
80104;SDS011;69865;47.648;19.030;2023-08-06T03:06:25;5.90;;;5.90;;
80104;SDS011;69865;47.648;19.030;2023-08-06T03:06:59;6.03;;;6.03;;
80104;SDS011;69865;47.648;19.030;2023-08-06T03:07:31;5.57;;;5.57;;
80104;SDS011;69865;47.648;19.030;2023-08-06T03:08:03;5.60;;;5.60;;
80104;SDS011;69865;47.648;19.030;2023-08-06T03:08:35;5.60;;;5.60;;
80104;SDS011;69865;47.648;19.030;2023-08-06T03:09:08;6.13;;;6.13;;
80104;SDS011;69865;47.648;19.030;2023-08-06T03:09:40;5.57;;;5.57;;
80104;SDS011;69865;47.648;19.030;2023-08-06T03:10:12;5.63;;;5.63;;
80104;SDS011;69865;47.648;19.030;2023-08-06T03:10:44;5.77;;;5.77;;
80104;SDS011;69865;47.648;19.030;2023-08-06T03:11:17;5.53;;;5.53;;
80104;SDS011;69865;47.648;19.030;2023-08-06T03:11:49;5.23;;;5.23;;
80104;SDS011;69865;47.648;19.030;2023-08-06T03:12:22;5.67;;;5.67;;
80104;SDS011;69865;47.648;19.030;2023-08-06T03:12:54;5.53;;;5.53;;
80104;SDS011;69865;47.648;19.030;2023-08-06T03:13:26;5.50;;;5.50;;
80104;SDS011;69865;47.648;19.030;2023-08-06T03:13:58;5.67;;;5.67;;
80104;SDS011;69865;47.648;19.030;2023-08-06T03:14:30;5.50;;;5.50;;
80104;SDS011;69865;47.648;19.030;2023-08-06T03:15:03;5.37;;;5.37;;
80104;SDS011;69865;47.648;19.030;2023-08-06T03:15:36;5.10;;;5.10;;
80104;SDS011;69865;47.648;19.030;2023-08-06T03:16:08;5.23;;;5.23;;
80104;SDS011;69865;47.648;19.030;2023-08-06T03:16:40;4.90;;;4.90;;